sensor_id;sensor_type;location;lat;lon;timestamp;P1;durP1;ratioP1;P2;durP2;ratioP2
26530;SDS011;14201;43.188;24.160;2022-08-21T00:02:01;11.60;;;6.28;;
26530;SDS011;14201;43.188;24.160;2022-08-21T00:04:27;14.63;;;6.45;;
26530;SDS011;14201;43.188;24.160;2022-08-21T00:06:52;9.68;;;6.18;;
26530;SDS011;14201;43.188;24.160;2022-08-21T00:09:18;16.20;;;6.53;;
26530;SDS011;14201;43.188;24.160;2022-08-21T00:11:45;16.02;;;6.90;;
26530;SDS011;14201;43.188;24.160;2022-08-21T00:14:12;12.90;;;6.50;;
26530;SDS011;14201;43.188;24.160;2022-08-21T00:16:38;10.13;;;5.70;;
26530;SDS011;14201;43.188;24.160;2022-08-21T00:19:04;18.48;;;5.97;;
26530;SDS011;14201;43.188;24.160;2022-08-21T00:21:31;16.25;;;6.07;;
26530;SDS011;14201;43.188;24.160;2022-08-21T00:23:58;17.60;;;6.35;;
26530;SDS011;14201;43.188;24.160;2022-08-21T00:26:24;13.50;;;6.03;;
26530;SDS011;14201;43.188;24.160;2022-08-21T00:28:51;13.70;;;6.15;;
26530;SDS011;14201;43.188;24.160;2022-08-21T00:31:17;9.10;;;5.55;;
26530;SDS011;14201;43.188;24.160;2022-08-21T00:33:43;18.02;;;6.63;;
26530;SDS011;14201;43.188;24.160;2022-08-21T00:36:10;17.33;;;6.43;;
26530;SDS011;14201;43.188;24.160;2022-08-21T00:38:38;13.73;;;6.25;;
26530;SDS011;14201;43.188;24.160;2022-08-21T00:41:04;12.90;;;6.93;;
26530;SDS011;14201;43.188;24.160;2022-08-21T00:43:33;13.48;;;6.57;;
26530;SDS011;14201;43.188;24.160;2022-08-21T00:46:01;14.00;;;6.90;;
26530;SDS011;14201;43.188;24.160;2022-08-21T00:48:28;11.20;;;7.10;;
26530;SDS011;14201;43.188;24.160;2022-08-21T00:53:25;17.20;;;6.63;;
26530;SDS011;14201;43.188;24.160;2022-08-21T00:55:52;15.07;;;6.68;;
26530;SDS011;14201;43.188;24.160;2022-08-21T00:58:18;16.85;;;7.10;;
26530;SDS011;14201;43.188;24.160;2022-08-21T01:00:45;13.23;;;6.85;;
26530;SDS011;14201;43.188;24.160;2022-08-21T01:03:14;18.85;;;7.65;;
26530;SDS011;14201;43.188;24.160;2022-08-21T01:05:43;14.40;;;7.95;;
26530;SDS011;14201;43.188;24.160;2022-08-21T01:08:11;14.80;;;7.55;;
26530;SDS011;14201;43.188;24.160;2022-08-21T01:10:38;18.85;;;7.70;;
26530;SDS011;14201;43.188;24.160;2022-08-21T01:13:07;14.15;;;7.25;;
26530;SDS011;14201;43.188;24.160;2022-08-21T01:15:38;16.45;;;7.30;;
26530;SDS011;14201;43.188;24.160;2022-08-21T01:18:08;13.45;;;7.72;;
26530;SDS011;14201;43.188;24.160;2022-08-21T01:20:36;12.85;;;8.15;;
26530;SDS011;14201;43.188;24.160;2022-08-21T01:23:04;20.48;;;7.50;;
26530;SDS011;14201;43.188;24.160;2022-08-21T01:25:31;17.13;;;7.78;;
26530;SDS011;14201;43.188;24.160;2022-08-21T01:27:58;14.13;;;7.50;;
26530;SDS011;14201;43.188;24.160;2022-08-21T01:30:27;17.43;;;7.63;;
26530;SDS011;14201;43.188;24.160;2022-08-21T01:32:53;12.82;;;7.20;;
26530;SDS011;14201;43.188;24.160;2022-08-21T01:35:20;14.52;;;7.10;;
26530;SDS011;14201;43.188;24.160;2022-08-21T01:37:46;17.33;;;8.02;;
26530;SDS011;14201;43.188;24.160;2022-08-21T01:40:14;11.95;;;8.40;;
26530;SDS011;14201;43.188;24.160;2022-08-21T01:42:41;16.80;;;8.50;;
26530;SDS011;14201;43.188;24.160;2022-08-21T01:45:07;13.65;;;9.20;;
26530;SDS011;14201;43.188;24.160;2022-08-21T01:47:34;14.75;;;9.35;;
26530;SDS011;14201;43.188;24.160;2022-08-21T01:50:00;17.40;;;9.98;;
26530;SDS011;14201;43.188;24.160;2022-08-21T01:52:26;16.65;;;9.88;;
26530;SDS011;14201;43.188;24.160;2022-08-21T01:54:52;18.05;;;8.68;;
26530;SDS011;14201;43.188;24.160;2022-08-21T01:57:17;15.73;;;8.18;;
26530;SDS011;14201;43.188;24.160;2022-08-21T01:59:43;14.43;;;7.43;;
26530;SDS011;14201;43.188;24.160;2022-08-21T02:02:08;16.58;;;8.00;;
26530;SDS011;14201;43.188;24.160;2022-08-21T02:04:34;12.82;;;8.10;;
26530;SDS011;14201;43.188;24.160;2022-08-21T02:07:00;14.50;;;7.00;;
26530;SDS011;14201;43.188;24.160;2022-08-21T02:09:27;17.15;;;7.70;;
26530;SDS011;14201;43.188;24.160;2022-08-21T02:11:52;17.15;;;7.65;;
26530;SDS011;14201;43.188;24.160;2022-08-21T02:14:18;15.52;;;7.40;;
26530;SDS011;14201;43.188;24.160;2022-08-21T02:16:44;17.75;;;8.68;;
26530;SDS011;14201;43.188;24.160;2022-08-21T02:19:12;13.32;;;7.90;;
26530;SDS011;14201;43.188;24.160;2022-08-21T02:21:39;12.95;;;8.05;;
26530;SDS011;14201;43.188;24.160;2022-08-21T02:24:06;17.38;;;7.78;;
26530;SDS011;14201;43.188;24.160;2022-08-21T02:26:32;17.50;;;8.48;;
26530;SDS011;14201;43.188;24.160;2022-08-21T02:28:58;15.82;;;7.80;;
26530;SDS011;14201;43.188;24.160;2022-08-21T02:31:24;17.00;;;9.07;;
26530;SDS011;14201;43.188;24.160;2022-08-21T02:33:50;13.13;;;8.13;;
26530;SDS011;14201;43.188;24.160;2022-08-21T02:36:17;21.40;;;7.60;;
26530;SDS011;14201;43.188;24.160;2022-08-21T02:38:43;12.35;;;7.90;;
26530;SDS011;14201;43.188;24.160;2022-08-21T02:41:11;14.73;;;8.77;;
26530;SDS011;14201;43.188;24.160;2022-08-21T02:43:39;20.13;;;8.52;;
26530;SDS011;14201;43.188;24.160;2022-08-21T02:46:07;19.45;;;8.70;;
26530;SDS011;14201;43.188;24.160;2022-08-21T02:48:34;22.30;;;9.70;;
26530;SDS011;14201;43.188;24.160;2022-08-21T02:51:01;19.65;;;9.55;;
26530;SDS011;14201;43.188;24.160;2022-08-21T02:53:28;21.65;;;10.65;;
26530;SDS011;14201;43.188;24.160;2022-08-21T02:55:54;21.55;;;10.57;;
26530;SDS011;14201;43.188;24.160;2022-08-21T02:58:25;22.75;;;10.27;;
26530;SDS011;14201;43.188;24.160;2022-08-21T03:00:52;18.95;;;10.98;;
26530;SDS011;14201;43.188;24.160;2022-08-21T03:03:19;21.80;;;11.45;;
26530;SDS011;14201;43.188;24.160;2022-08-21T03:05:46;21.40;;;12.45;;
26530;SDS011;14201;43.188;24.160;2022-08-21T03:08:13;25.85;;;12.32;;
26530;SDS011;14201;43.188;24.160;2022-08-21T03:10:45;20.17;;;12.15;;
26530;SDS011;14201;43.188;24.160;2022-08-21T03:13:13;17.80;;;12.20;;
26530;SDS011;14201;43.188;24.160;2022-08-21T03:15:40;21.52;;;12.77;;
26530;SDS011;14201;43.188;24.160;2022-08-21T03:18:06;30.63;;;13.80;;
26530;SDS011;14201;43.188;24.160;2022-08-21T03:20:33;21.05;;;12.40;;
26530;SDS011;14201;43.188;24.160;2022-08-21T03:22:59;22.00;;;13.95;;
26530;SDS011;14201;43.188;24.160;2022-08-21T03:25:28;25.45;;;12.13;;
26530;SDS011;14201;43.188;24.160;2022-08-21T03:27:58;21.63;;;12.07;;
26530;SDS011;14201;43.188;24.160;2022-08-21T03:30:28;16.70;;;11.95;;
26530;SDS011;14201;43.188;24.160;2022-08-21T03:32:56;21.75;;;10.80;;
26530;SDS011;14201;43.188;24.160;2022-08-21T03:35:24;21.83;;;10.27;;
26530;SDS011;14201;43.188;24.160;2022-08-21T03:37:50;22.60;;;11.13;;
26530;SDS011;14201;43.188;24.160;2022-08-21T03:40:16;16.35;;;10.25;;
26530;SDS011;14201;43.188;24.160;2022-08-21T03:42:45;18.48;;;10.48;;
26530;SDS011;14201;43.188;24.160;2022-08-21T03:45:12;25.58;;;11.20;;
26530;SDS011;14201;43.188;24.160;2022-08-21T03:47:49;19.30;;;10.90;;
26530;SDS011;14201;43.188;24.160;2022-08-21T03:50:16;12.43;;;7.60;;
26530;SDS011;14201;43.188;24.160;2022-08-21T03:52:42;13.35;;;7.93;;
26530;SDS011;14201;43.188;24.160;2022-08-21T03:55:08;14.50;;;7.78;;
26530;SDS011;14201;43.188;24.160;2022-08-21T03:57:33;14.63;;;7.78;;
26530;SDS011;14201;43.188;24.160;2022-08-21T03:59:59;11.95;;;6.22;;
26530;SDS011;14201;43.188;24.160;2022-08-21T04:02:25;15.25;;;7.00;;
26530;SDS011;14201;43.188;24.160;2022-08-21T04:04:51;11.70;;;7.25;;
26530;SDS011;14201;43.188;24.160;2022-08-21T04:07:16;13.85;;;7.18;;
26530;SDS011;14201;43.188;24.160;2022-08-21T04:09:43;16.75;;;7.72;;
26530;SDS011;14201;43.188;24.160;2022-08-21T04:12:09;19.73;;;7.63;;
26530;SDS011;14201;43.188;24.160;2022-08-21T04:14:35;11.30;;;7.70;;
26530;SDS011;14201;43.188;24.160;2022-08-21T04:17:01;17.20;;;8.32;;
26530;SDS011;14201;43.188;24.160;2022-08-21T04:19:26;18.10;;;8.32;;
26530;SDS011;14201;43.188;24.160;2022-08-21T04:21:52;18.25;;;8.05;;
26530;SDS011;14201;43.188;24.160;2022-08-21T04:24:18;19.80;;;7.50;;
26530;SDS011;14201;43.188;24.160;2022-08-21T04:26:44;18.42;;;6.88;;
26530;SDS011;14201;43.188;24.160;2022-08-21T04:29:10;9.90;;;6.38;;
26530;SDS011;14201;43.188;24.160;2022-08-21T04:31:36;16.02;;;6.40;;
26530;SDS011;14201;43.188;24.160;2022-08-21T04:34:03;16.98;;;6.95;;
26530;SDS011;14201;43.188;24.160;2022-08-21T04:36:30;11.65;;;6.03;;
26530;SDS011;14201;43.188;24.160;2022-08-21T04:38:56;14.25;;;7.18;;
26530;SDS011;14201;43.188;24.160;2022-08-21T04:41:22;9.55;;;6.20;;
26530;SDS011;14201;43.188;24.160;2022-08-21T04:43:48;15.32;;;7.30;;
26530;SDS011;14201;43.188;24.160;2022-08-21T04:46:15;10.25;;;6.43;;
26530;SDS011;14201;43.188;24.160;2022-08-21T04:48:40;11.23;;;6.43;;
26530;SDS011;14201;43.188;24.160;2022-08-21T04:51:07;16.02;;;6.28;;
26530;SDS011;14201;43.188;24.160;2022-08-21T04:53:40;15.45;;;6.35;;
26530;SDS011;14201;43.188;24.160;2022-08-21T04:56:28;16.45;;;6.50;;
26530;SDS011;14201;43.188;24.160;2022-08-21T04:58:57;7.93;;;6.22;;
26530;SDS011;14201;43.188;24.160;2022-08-21T05:01:25;17.60;;;5.93;;
26530;SDS011;14201;43.188;24.160;2022-08-21T05:03:55;10.40;;;6.53;;
26530;SDS011;14201;43.188;24.160;2022-08-21T05:06:23;15.27;;;6.53;;
26530;SDS011;14201;43.188;24.160;2022-08-21T05:08:51;13.48;;;6.32;;
26530;SDS011;14201;43.188;24.160;2022-08-21T05:11:20;11.07;;;5.60;;
26530;SDS011;14201;43.188;24.160;2022-08-21T05:13:48;10.50;;;5.85;;
26530;SDS011;14201;43.188;24.160;2022-08-21T05:16:15;12.93;;;5.80;;
26530;SDS011;14201;43.188;24.160;2022-08-21T05:18:41;9.82;;;5.35;;
26530;SDS011;14201;43.188;24.160;2022-08-21T05:21:07;10.98;;;5.50;;
26530;SDS011;14201;43.188;24.160;2022-08-21T05:23:34;15.75;;;6.10;;
26530;SDS011;14201;43.188;24.160;2022-08-21T05:26:00;12.18;;;5.90;;
26530;SDS011;14201;43.188;24.160;2022-08-21T05:28:26;13.25;;;6.28;;
26530;SDS011;14201;43.188;24.160;2022-08-21T05:30:52;16.05;;;6.95;;
26530;SDS011;14201;43.188;24.160;2022-08-21T05:33:19;15.50;;;6.78;;
26530;SDS011;14201;43.188;24.160;2022-08-21T05:35:44;17.00;;;7.32;;
26530;SDS011;14201;43.188;24.160;2022-08-21T05:38:10;12.73;;;6.88;;
26530;SDS011;14201;43.188;24.160;2022-08-21T05:40:36;14.88;;;7.75;;
26530;SDS011;14201;43.188;24.160;2022-08-21T05:43:02;15.90;;;7.15;;
26530;SDS011;14201;43.188;24.160;2022-08-21T05:45:29;13.00;;;7.28;;
26530;SDS011;14201;43.188;24.160;2022-08-21T05:47:57;14.73;;;8.02;;
26530;SDS011;14201;43.188;24.160;2022-08-21T05:50:23;12.15;;;7.57;;
26530;SDS011;14201;43.188;24.160;2022-08-21T05:52:48;13.48;;;8.48;;
26530;SDS011;14201;43.188;24.160;2022-08-21T05:55:15;14.85;;;8.50;;
26530;SDS011;14201;43.188;24.160;2022-08-21T05:57:40;17.95;;;10.05;;
26530;SDS011;14201;43.188;24.160;2022-08-21T06:00:09;19.45;;;9.32;;
26530;SDS011;14201;43.188;24.160;2022-08-21T06:02:38;21.75;;;9.35;;
26530;SDS011;14201;43.188;24.160;2022-08-21T06:05:04;13.85;;;8.90;;
26530;SDS011;14201;43.188;24.160;2022-08-21T06:07:31;17.30;;;9.20;;
26530;SDS011;14201;43.188;24.160;2022-08-21T06:09:57;12.48;;;9.00;;
26530;SDS011;14201;43.188;24.160;2022-08-21T06:12:23;16.75;;;9.43;;
26530;SDS011;14201;43.188;24.160;2022-08-21T06:14:49;14.32;;;8.07;;
26530;SDS011;14201;43.188;24.160;2022-08-21T06:17:16;17.17;;;8.68;;
26530;SDS011;14201;43.188;24.160;2022-08-21T06:19:43;15.75;;;7.82;;
26530;SDS011;14201;43.188;24.160;2022-08-21T06:22:09;15.65;;;8.50;;
26530;SDS011;14201;43.188;24.160;2022-08-21T06:24:35;13.82;;;8.70;;
26530;SDS011;14201;43.188;24.160;2022-08-21T06:27:06;19.90;;;8.02;;
26530;SDS011;14201;43.188;24.160;2022-08-21T06:29:34;12.68;;;8.07;;
26530;SDS011;14201;43.188;24.160;2022-08-21T06:32:01;13.35;;;8.40;;
26530;SDS011;14201;43.188;24.160;2022-08-21T06:34:27;14.63;;;9.43;;
26530;SDS011;14201;43.188;24.160;2022-08-21T06:36:53;21.20;;;10.18;;
26530;SDS011;14201;43.188;24.160;2022-08-21T06:39:19;15.82;;;9.90;;
26530;SDS011;14201;43.188;24.160;2022-08-21T06:41:45;15.07;;;9.60;;
26530;SDS011;14201;43.188;24.160;2022-08-21T06:44:11;21.25;;;9.88;;
26530;SDS011;14201;43.188;24.160;2022-08-21T06:46:37;14.38;;;9.45;;
26530;SDS011;14201;43.188;24.160;2022-08-21T06:49:03;19.13;;;9.70;;
26530;SDS011;14201;43.188;24.160;2022-08-21T06:51:29;17.45;;;9.70;;
26530;SDS011;14201;43.188;24.160;2022-08-21T06:53:55;18.40;;;9.52;;
26530;SDS011;14201;43.188;24.160;2022-08-21T06:56:21;14.10;;;9.32;;
26530;SDS011;14201;43.188;24.160;2022-08-21T06:58:47;16.33;;;8.95;;
26530;SDS011;14201;43.188;24.160;2022-08-21T07:01:12;16.88;;;9.57;;
26530;SDS011;14201;43.188;24.160;2022-08-21T07:03:39;15.68;;;9.73;;
26530;SDS011;14201;43.188;24.160;2022-08-21T07:06:08;13.00;;;8.88;;
26530;SDS011;14201;43.188;24.160;2022-08-21T07:08:35;22.27;;;10.02;;
26530;SDS011;14201;43.188;24.160;2022-08-21T07:11:03;19.13;;;8.95;;
26530;SDS011;14201;43.188;24.160;2022-08-21T07:13:34;18.27;;;9.38;;
26530;SDS011;14201;43.188;24.160;2022-08-21T07:16:00;16.67;;;8.70;;
26530;SDS011;14201;43.188;24.160;2022-08-21T07:18:27;17.42;;;8.80;;
26530;SDS011;14201;43.188;24.160;2022-08-21T07:20:56;11.30;;;7.78;;
26530;SDS011;14201;43.188;24.160;2022-08-21T07:23:28;13.32;;;8.88;;
26530;SDS011;14201;43.188;24.160;2022-08-21T07:25:57;12.60;;;8.05;;
26530;SDS011;14201;43.188;24.160;2022-08-21T07:28:24;20.98;;;12.77;;
26530;SDS011;14201;43.188;24.160;2022-08-21T07:30:51;17.38;;;8.43;;
26530;SDS011;14201;43.188;24.160;2022-08-21T07:33:19;17.42;;;8.00;;
26530;SDS011;14201;43.188;24.160;2022-08-21T07:35:45;12.60;;;9.68;;
26530;SDS011;14201;43.188;24.160;2022-08-21T07:38:10;17.60;;;8.68;;
26530;SDS011;14201;43.188;24.160;2022-08-21T07:40:36;17.92;;;9.15;;
26530;SDS011;14201;43.188;24.160;2022-08-21T07:43:02;11.50;;;9.80;;
26530;SDS011;14201;43.188;24.160;2022-08-21T07:45:28;18.65;;;9.38;;
26530;SDS011;14201;43.188;24.160;2022-08-21T07:47:54;17.73;;;10.10;;
26530;SDS011;14201;43.188;24.160;2022-08-21T07:50:20;17.80;;;10.75;;
26530;SDS011;14201;43.188;24.160;2022-08-21T07:52:46;26.73;;;10.35;;
26530;SDS011;14201;43.188;24.160;2022-08-21T07:55:13;14.38;;;9.93;;
26530;SDS011;14201;43.188;24.160;2022-08-21T07:57:41;17.67;;;10.20;;
26530;SDS011;14201;43.188;24.160;2022-08-21T08:00:09;19.50;;;10.68;;
26530;SDS011;14201;43.188;24.160;2022-08-21T08:02:39;16.17;;;10.18;;
26530;SDS011;14201;43.188;24.160;2022-08-21T08:05:07;13.43;;;9.52;;
26530;SDS011;14201;43.188;24.160;2022-08-21T08:07:35;15.70;;;9.13;;
26530;SDS011;14201;43.188;24.160;2022-08-21T08:10:01;15.75;;;8.65;;
26530;SDS011;14201;43.188;24.160;2022-08-21T08:12:29;20.30;;;13.23;;
26530;SDS011;14201;43.188;24.160;2022-08-21T08:14:58;20.13;;;12.70;;
26530;SDS011;14201;43.188;24.160;2022-08-21T08:17:25;16.27;;;9.48;;
26530;SDS011;14201;43.188;24.160;2022-08-21T08:19:52;12.65;;;8.63;;
26530;SDS011;14201;43.188;24.160;2022-08-21T08:22:19;13.43;;;8.10;;
26530;SDS011;14201;43.188;24.160;2022-08-21T08:24:48;15.20;;;8.07;;
26530;SDS011;14201;43.188;24.160;2022-08-21T08:27:16;12.25;;;9.48;;
26530;SDS011;14201;43.188;24.160;2022-08-21T08:29:43;17.17;;;9.60;;
26530;SDS011;14201;43.188;24.160;2022-08-21T08:32:10;17.38;;;8.90;;
26530;SDS011;14201;43.188;24.160;2022-08-21T08:34:37;14.32;;;8.57;;
26530;SDS011;14201;43.188;24.160;2022-08-21T08:37:04;11.23;;;8.45;;
26530;SDS011;14201;43.188;24.160;2022-08-21T08:39:32;13.65;;;9.32;;
26530;SDS011;14201;43.188;24.160;2022-08-21T08:42:09;17.50;;;9.52;;
26530;SDS011;14201;43.188;24.160;2022-08-21T08:44:42;14.65;;;9.75;;
26530;SDS011;14201;43.188;24.160;2022-08-21T08:47:13;13.88;;;8.90;;
26530;SDS011;14201;43.188;24.160;2022-08-21T08:52:29;14.02;;;9.88;;
26530;SDS011;14201;43.188;24.160;2022-08-21T08:55:02;15.60;;;9.65;;
26530;SDS011;14201;43.188;24.160;2022-08-21T08:57:35;16.52;;;9.35;;
26530;SDS011;14201;43.188;24.160;2022-08-21T09:00:07;23.73;;;10.15;;
26530;SDS011;14201;43.188;24.160;2022-08-21T09:02:39;17.23;;;8.73;;
26530;SDS011;14201;43.188;24.160;2022-08-21T09:05:06;13.90;;;9.25;;
26530;SDS011;14201;43.188;24.160;2022-08-21T09:07:38;15.18;;;9.60;;
26530;SDS011;14201;43.188;24.160;2022-08-21T09:10:13;15.10;;;9.50;;
26530;SDS011;14201;43.188;24.160;2022-08-21T09:12:49;17.52;;;8.63;;
26530;SDS011;14201;43.188;24.160;2022-08-21T09:18:38;15.73;;;9.00;;
26530;SDS011;14201;43.188;24.160;2022-08-21T09:21:30;14.02;;;8.38;;
26530;SDS011;14201;43.188;24.160;2022-08-21T09:24:02;14.50;;;8.38;;
26530;SDS011;14201;43.188;24.160;2022-08-21T09:27:10;12.40;;;9.15;;
26530;SDS011;14201;43.188;24.160;2022-08-21T09:29:41;17.25;;;8.77;;
26530;SDS011;14201;43.188;24.160;2022-08-21T09:32:15;14.77;;;8.45;;
26530;SDS011;14201;43.188;24.160;2022-08-21T09:34:43;17.67;;;8.20;;
26530;SDS011;14201;43.188;24.160;2022-08-21T09:37:29;15.20;;;8.63;;
26530;SDS011;14201;43.188;24.160;2022-08-21T09:39:57;10.90;;;7.60;;
26530;SDS011;14201;43.188;24.160;2022-08-21T09:42:30;14.57;;;8.38;;
26530;SDS011;14201;43.188;24.160;2022-08-21T09:45:11;16.98;;;8.65;;
26530;SDS011;14201;43.188;24.160;2022-08-21T09:47:46;14.48;;;8.57;;
26530;SDS011;14201;43.188;24.160;2022-08-21T09:50:19;14.98;;;8.25;;
26530;SDS011;14201;43.188;24.160;2022-08-21T09:52:57;13.30;;;7.55;;
26530;SDS011;14201;43.188;24.160;2022-08-21T09:55:38;12.60;;;7.95;;
26530;SDS011;14201;43.188;24.160;2022-08-21T09:58:32;18.08;;;8.02;;
26530;SDS011;14201;43.188;24.160;2022-08-21T10:01:00;11.73;;;7.07;;
26530;SDS011;14201;43.188;24.160;2022-08-21T10:03:27;12.88;;;6.78;;
26530;SDS011;14201;43.188;24.160;2022-08-21T10:06:01;13.25;;;6.40;;
26530;SDS011;14201;43.188;24.160;2022-08-21T10:08:34;21.10;;;11.30;;
26530;SDS011;14201;43.188;24.160;2022-08-21T10:11:06;11.27;;;6.63;;
26530;SDS011;14201;43.188;24.160;2022-08-21T10:24:59;12.00;;;5.93;;
26530;SDS011;14201;43.188;24.160;2022-08-21T10:28:07;18.10;;;9.05;;
26530;SDS011;14201;43.188;24.160;2022-08-21T10:37:21;10.23;;;5.90;;
26530;SDS011;14201;43.188;24.160;2022-08-21T10:42:52;10.93;;;6.75;;
26530;SDS011;14201;43.188;24.160;2022-08-21T10:45:58;12.07;;;6.57;;
26530;SDS011;14201;43.188;24.160;2022-08-21T10:48:36;13.07;;;6.40;;
26530;SDS011;14201;43.188;24.160;2022-08-21T10:51:10;13.70;;;7.30;;
26530;SDS011;14201;43.188;24.160;2022-08-21T10:54:09;15.82;;;7.20;;
26530;SDS011;14201;43.188;24.160;2022-08-21T10:56:44;13.93;;;7.22;;
26530;SDS011;14201;43.188;24.160;2022-08-21T11:01:53;11.95;;;6.85;;
26530;SDS011;14201;43.188;24.160;2022-08-21T11:07:02;17.30;;;6.75;;
26530;SDS011;14201;43.188;24.160;2022-08-21T11:09:32;12.27;;;7.03;;
26530;SDS011;14201;43.188;24.160;2022-08-21T11:12:17;14.75;;;6.05;;
26530;SDS011;14201;43.188;24.160;2022-08-21T11:17:16;13.88;;;5.65;;
26530;SDS011;14201;43.188;24.160;2022-08-21T11:19:53;9.15;;;5.65;;
26530;SDS011;14201;43.188;24.160;2022-08-21T11:22:50;11.40;;;5.80;;
26530;SDS011;14201;43.188;24.160;2022-08-21T11:25:31;11.68;;;5.63;;
26530;SDS011;14201;43.188;24.160;2022-08-21T17:13:33;9.63;;;5.35;;
26530;SDS011;14201;43.188;24.160;2022-08-21T17:15:59;12.95;;;5.43;;
26530;SDS011;14201;43.188;24.160;2022-08-21T17:18:25;7.60;;;4.43;;
26530;SDS011;14201;43.188;24.160;2022-08-21T17:33:11;11.07;;;4.32;;
26530;SDS011;14201;43.188;24.160;2022-08-21T17:35:39;12.88;;;4.63;;
26530;SDS011;14201;43.188;24.160;2022-08-21T17:38:06;7.80;;;4.05;;
26530;SDS011;14201;43.188;24.160;2022-08-21T17:40:32;7.47;;;3.72;;
26530;SDS011;14201;43.188;24.160;2022-08-21T17:42:59;7.13;;;4.30;;
26530;SDS011;14201;43.188;24.160;2022-08-21T17:52:42;6.78;;;3.85;;
26530;SDS011;14201;43.188;24.160;2022-08-21T17:55:12;7.47;;;3.88;;
26530;SDS011;14201;43.188;24.160;2022-08-21T17:57:39;8.60;;;4.25;;
26530;SDS011;14201;43.188;24.160;2022-08-21T18:00:08;8.07;;;3.67;;
26530;SDS011;14201;43.188;24.160;2022-08-21T18:02:36;11.45;;;3.72;;
26530;SDS011;14201;43.188;24.160;2022-08-21T18:05:03;6.05;;;3.53;;
26530;SDS011;14201;43.188;24.160;2022-08-21T18:07:31;10.82;;;3.10;;
26530;SDS011;14201;43.188;24.160;2022-08-21T18:09:57;6.03;;;3.53;;
26530;SDS011;14201;43.188;24.160;2022-08-21T18:12:24;5.80;;;2.60;;
26530;SDS011;14201;43.188;24.160;2022-08-21T18:14:49;4.93;;;3.08;;
26530;SDS011;14201;43.188;24.160;2022-08-21T18:17:17;5.30;;;2.78;;
26530;SDS011;14201;43.188;24.160;2022-08-21T18:19:45;5.75;;;3.05;;
26530;SDS011;14201;43.188;24.160;2022-08-21T18:22:11;8.18;;;2.97;;
26530;SDS011;14201;43.188;24.160;2022-08-21T18:24:37;3.63;;;2.70;;
26530;SDS011;14201;43.188;24.160;2022-08-21T18:27:06;7.72;;;2.80;;
26530;SDS011;14201;43.188;24.160;2022-08-21T18:29:33;5.70;;;3.05;;
26530;SDS011;14201;43.188;24.160;2022-08-21T18:32:02;5.50;;;3.03;;
26530;SDS011;14201;43.188;24.160;2022-08-21T18:34:33;7.65;;;3.10;;
26530;SDS011;14201;43.188;24.160;2022-08-21T18:37:06;5.10;;;3.33;;
26530;SDS011;14201;43.188;24.160;2022-08-21T18:39:32;6.97;;;3.25;;
26530;SDS011;14201;43.188;24.160;2022-08-21T19:08:48;10.95;;;4.10;;
